Time;durP1;ratioP1;P1;durP2;ratioP2;P2;SDS_P1;SDS_P2;PMS_P1;PMS_P2;Temp;Humidity;BMP_temperature;BMP_pressure;BME280_temperature;BME280_humidity;BME280_pressure;Samples;Min_cycle;Max_cycle;Signal;HPM_P1;HPM_P2
2022/09/18 00:01:49;;;;;;;0.20;0.10;;;;;;;;;;4945132;28;20061;-82
2022/09/18 00:04:15;;;;;;;0.20;0.10;;;;;;;;;;4962006;28;20086;-81
2022/09/18 00:06:42;;;;;;;0.20;0.10;;;;;;;;;;4974284;28;20069;-81
2022/09/18 00:09:10;;;;;;;0.20;0.10;;;;;;;;;;4971546;28;20054;-84
2022/09/18 00:11:38;;;;;;;0.20;0.10;;;;;;;;;;4977919;28;20570;-84
2022/09/18 00:14:05;;;;;;;0.20;0.10;;;;;;;;;;4977145;28;20099;-83
2022/09/18 00:16:31;;;;;;;0.20;0.10;;;;;;;;;;4974669;28;20038;-81
2022/09/18 00:18:57;;;;;;;0.32;0.22;;;;;;;;;;4971774;28;20044;-82
2022/09/18 00:21:24;;;;;;;0.20;0.10;;;;;;;;;;4970231;28;20375;-82
2022/09/18 00:23:52;;;;;;;0.20;0.10;;;;;;;;;;4957848;28;20048;-82
2022/09/18 00:26:20;;;;;;;0.20;0.10;;;;;;;;;;4959037;28;20132;-83
2022/09/18 00:28:46;;;;;;;0.20;0.10;;;;;;;;;;4979827;28;20452;-82
2022/09/18 00:31:13;;;;;;;0.20;0.10;;;;;;;;;;4979302;28;20046;-83
2022/09/18 00:33:40;;;;;;;0.20;0.10;;;;;;;;;;4972295;28;20041;-82
2022/09/18 00:36:07;;;;;;;0.20;0.10;;;;;;;;;;4960222;28;20119;-83
2022/09/18 00:38:34;;;;;;;0.20;0.10;;;;;;;;;;4956866;28;20057;-83
2022/09/18 00:41:00;;;;;;;0.20;0.10;;;;;;;;;;4970709;28;20040;-81
2022/09/18 00:43:28;;;;;;;0.20;0.10;;;;;;;;;;4970257;28;21420;-82
2022/09/18 00:45:54;;;;;;;0.20;0.10;;;;;;;;;;4954766;28;20038;-82
2022/09/18 00:48:21;;;;;;;0.20;0.10;;;;;;;;;;4957150;28;20041;-82
2022/09/18 00:50:47;;;;;;;0.20;0.10;;;;;;;;;;4972224;28;20076;-83
2022/09/18 00:53:14;;;;;;;0.20;0.10;;;;;;;;;;4955341;28;22775;-80
2022/09/18 00:55:41;;;;;;;0.20;0.10;;;;;;;;;;4944055;28;20045;-82
2022/09/18 00:58:08;;;;;;;0.20;0.10;;;;;;;;;;4974443;28;20082;-82
2022/09/18 01:00:37;;;;;;;0.20;0.10;;;;;;;;;;4970146;28;20038;-83
2022/09/18 01:03:03;;;;;;;0.20;0.10;;;;;;;;;;4952399;28;20041;-80
2022/09/18 01:05:50;;;;;;;0.20;0.10;;;;;;;;;;4945269;28;20076;-81
2022/09/18 01:08:20;;;;;;;0.20;0.10;;;;;;;;;;4966321;28;20540;-81
2022/09/18 01:10:53;;;;;;;0.20;0.10;;;;;;;;;;4970493;28;22532;-82
2022/09/18 01:13:36;;;;;;;0.20;0.10;;;;;;;;;;4954266;28;20053;-83
2022/09/18 01:16:10;;;;;;;0.20;0.10;;;;;;;;;;4953933;28;20072;-81
2022/09/18 01:18:56;;;;;;;0.20;0.10;;;;;;;;;;4957955;28;20096;-82
2022/09/18 01:21:30;;;;;;;0.20;0.10;;;;;;;;;;4969441;28;20056;-83
2022/09/18 01:23:59;;;;;;;0.20;0.10;;;;;;;;;;4950053;28;20128;-83
2022/09/18 01:26:44;;;;;;;0.20;0.10;;;;;;;;;;4975853;28;20913;-83
2022/09/18 01:29:16;;;;;;;0.20;0.10;;;;;;;;;;4959442;28;20098;-84
2022/09/18 01:31:48;;;;;;;0.20;0.10;;;;;;;;;;4956170;28;20041;-81
2022/09/18 01:34:29;;;;;;;0.20;0.10;;;;;;;;;;4971864;28;20160;-83
2022/09/18 01:37:00;;;;;;;0.20;0.10;;;;;;;;;;4971806;28;20132;-83
2022/09/18 01:39:43;;;;;;;0.20;0.10;;;;;;;;;;4972819;28;20065;-83
2022/09/18 01:42:10;;;;;;;0.20;0.10;;;;;;;;;;4991593;23;20625;-90
2022/09/18 01:44:37;;;;;;;0.20;0.10;;;;;;;;;;4952884;28;20412;-88
2022/09/18 01:47:09;;;;;;;0.20;0.10;;;;;;;;;;4970103;28;20040;-90
2022/09/18 01:49:41;;;;;;;0.20;0.10;;;;;;;;;;4963363;28;20773;-86
2022/09/18 01:52:07;;;;;;;0.20;0.00;;;;;;;;;;4961161;28;20556;-87
2022/09/18 01:54:36;;;;;;;0.20;0.10;;;;;;;;;;4984513;28;20078;-86
2022/09/18 01:57:05;;;;;;;0.20;0.00;;;;;;;;;;4968166;28;20382;-85
2022/09/18 01:59:36;;;;;;;0.20;0.10;;;;;;;;;;4983884;28;20034;-87
2022/09/18 02:02:04;;;;;;;0.20;0.10;;;;;;;;;;4982524;28;20053;-86
2022/09/18 02:04:32;;;;;;;0.20;0.10;;;;;;;;;;4968381;28;20497;-86
2022/09/18 02:07:13;;;;;;;0.20;0.10;;;;;;;;;;4966519;28;20084;-86
2022/09/18 02:09:39;;;;;;;0.20;0.10;;;;;;;;;;4987131;28;20048;-87
2022/09/18 02:12:06;;;;;;;0.20;0.10;;;;;;;;;;4970292;28;20141;-86
2022/09/18 02:14:39;;;;;;;0.20;0.10;;;;;;;;;;4985491;28;20370;-87
2022/09/18 02:17:07;;;;;;;0.20;0.10;;;;;;;;;;4987458;28;20056;-87
2022/09/18 02:19:40;;;;;;;0.20;0.10;;;;;;;;;;4984638;28;20049;-85
2022/09/18 02:22:10;;;;;;;0.20;0.10;;;;;;;;;;4984564;28;20077;-86
2022/09/18 02:24:37;;;;;;;0.20;0.10;;;;;;;;;;4986475;28;20069;-84
2022/09/18 02:27:05;;;;;;;0.20;0.00;;;;;;;;;;4974221;28;20037;-85
2022/09/18 02:29:32;;;;;;;0.20;0.10;;;;;;;;;;4986660;28;20500;-87
2022/09/18 02:31:59;;;;;;;0.20;0.10;;;;;;;;;;4988275;28;20038;-86
2022/09/18 02:34:26;;;;;;;0.20;0.10;;;;;;;;;;5006167;28;20041;-86
2022/09/18 02:36:52;;;;;;;0.20;0.10;;;;;;;;;;4987835;28;20393;-87
2022/09/18 02:39:30;;;;;;;0.20;0.10;;;;;;;;;;4991848;28;20523;-85
2022/09/18 02:41:59;;;;;;;0.20;0.10;;;;;;;;;;4978271;28;20554;-86
2022/09/18 02:44:31;;;;;;;0.20;0.03;;;;;;;;;;4988165;28;20046;-86
2022/09/18 02:47:03;;;;;;;0.20;0.10;;;;;;;;;;4971843;28;20042;-87
2022/09/18 02:49:32;;;;;;;0.20;0.10;;;;;;;;;;4986870;28;20038;-86
2022/09/18 02:52:00;;;;;;;0.20;0.10;;;;;;;;;;4989153;28;20080;-86
2022/09/18 02:54:41;;;;;;;0.20;0.10;;;;;;;;;;4978298;28;20939;-88
2022/09/18 02:57:14;;;;;;;0.20;0.10;;;;;;;;;;4979258;28;20053;-86
2022/09/18 02:59:46;;;;;;;0.20;0.10;;;;;;;;;;4974279;28;20048;-87
2022/09/18 03:02:12;;;;;;;0.20;0.10;;;;;;;;;;4979406;28;20046;-87
2022/09/18 03:04:38;;;;;;;0.20;0.10;;;;;;;;;;4974204;28;20042;-88
2022/09/18 03:07:04;;;;;;;0.20;0.10;;;;;;;;;;4964220;28;20046;-87
2022/09/18 03:09:33;;;;;;;0.20;0.10;;;;;;;;;;4943648;28;20619;-86
2022/09/18 03:12:00;;;;;;;0.20;0.10;;;;;;;;;;4978044;28;20076;-86
2022/09/18 03:14:26;;;;;;;0.20;0.10;;;;;;;;;;4981951;28;20050;-87
2022/09/18 03:16:52;;;;;;;0.20;0.10;;;;;;;;;;4968206;28;20050;-85
2022/09/18 03:19:18;;;;;;;0.20;0.10;;;;;;;;;;4978892;28;20107;-86
2022/09/18 03:21:45;;;;;;;0.20;0.10;;;;;;;;;;4981060;28;20111;-87
2022/09/18 03:24:11;;;;;;;0.20;0.10;;;;;;;;;;4966863;28;20042;-89
2022/09/18 03:26:37;;;;;;;0.40;0.20;;;;;;;;;;4964032;28;20100;-88
2022/09/18 03:29:07;;;;;;;0.20;0.10;;;;;;;;;;4942764;28;20077;-86
2022/09/18 03:31:33;;;;;;;0.20;0.10;;;;;;;;;;4983815;28;20044;-84
2022/09/18 03:33:59;;;;;;;0.20;0.10;;;;;;;;;;4953697;28;22661;-86
2022/09/18 03:36:25;;;;;;;0.20;0.10;;;;;;;;;;4964900;28;20393;-87
2022/09/18 03:38:51;;;;;;;0.20;0.10;;;;;;;;;;4961720;28;20066;-87
2022/09/18 03:41:17;;;;;;;0.20;0.00;;;;;;;;;;4944508;28;20041;-87
2022/09/18 03:43:46;;;;;;;0.20;0.10;;;;;;;;;;4957981;28;20132;-89
2022/09/18 03:46:21;;;;;;;0.20;0.10;;;;;;;;;;4959154;28;20046;-90
2022/09/18 03:48:52;;;;;;;0.20;0.10;;;;;;;;;;4967594;28;20041;-89
2022/09/18 03:51:19;;;;;;;0.20;0.10;;;;;;;;;;4963873;28;20034;-87
2022/09/18 03:53:46;;;;;;;0.20;0.10;;;;;;;;;;4976748;28;20053;-90
2022/09/18 03:56:12;;;;;;;0.20;0.00;;;;;;;;;;4967215;28;20503;-87
2022/09/18 03:58:39;;;;;;;0.20;0.10;;;;;;;;;;4979228;28;20038;-88
2022/09/18 04:01:05;;;;;;;0.20;0.10;;;;;;;;;;4969483;28;20034;-89
2022/09/18 04:03:35;;;;;;;0.20;0.00;;;;;;;;;;4964061;28;20041;-89
2022/09/18 04:06:01;;;;;;;0.20;0.10;;;;;;;;;;4966339;28;20470;-88
2022/09/18 04:08:27;;;;;;;0.20;0.10;;;;;;;;;;4966664;28;20072;-86
2022/09/18 04:10:54;;;;;;;0.20;0.10;;;;;;;;;;4954161;28;20492;-87
2022/09/18 04:13:20;;;;;;;0.20;0.10;;;;;;;;;;4981909;28;20069;-90
2022/09/18 04:15:49;;;;;;;0.20;0.10;;;;;;;;;;4966964;28;20661;-88
2022/09/18 04:18:15;;;;;;;0.20;0.10;;;;;;;;;;4966502;28;20042;-88
2022/09/18 04:20:41;;;;;;;0.20;0.10;;;;;;;;;;4950898;28;20409;-88
2022/09/18 04:23:07;;;;;;;0.20;0.10;;;;;;;;;;4982206;28;20622;-86
2022/09/18 04:25:33;;;;;;;0.20;0.10;;;;;;;;;;4966042;28;20133;-87
2022/09/18 04:27:59;;;;;;;0.20;0.10;;;;;;;;;;4953279;28;20033;-87
2022/09/18 04:30:25;;;;;;;0.20;0.10;;;;;;;;;;4964808;28;20046;-88
2022/09/18 04:32:51;;;;;;;0.20;0.10;;;;;;;;;;4968183;28;20038;-87
2022/09/18 04:35:18;;;;;;;0.20;0.10;;;;;;;;;;4982852;28;20484;-88
2022/09/18 04:37:44;;;;;;;0.20;0.10;;;;;;;;;;4978406;28;20037;-88
2022/09/18 04:40:10;;;;;;;0.20;0.10;;;;;;;;;;4951174;28;20038;-90
2022/09/18 04:42:36;;;;;;;0.20;0.10;;;;;;;;;;4983398;28;20083;-88
2022/09/18 04:45:03;;;;;;;0.20;0.10;;;;;;;;;;4957910;28;20045;-88
2022/09/18 04:47:29;;;;;;;0.30;0.20;;;;;;;;;;4970636;28;20049;-85
2022/09/18 04:49:55;;;;;;;0.20;0.10;;;;;;;;;;4960906;28;20046;-86
2022/09/18 04:52:22;;;;;;;0.20;0.10;;;;;;;;;;4965449;28;20104;-84
2022/09/18 04:54:48;;;;;;;0.45;0.13;;;;;;;;;;4960707;28;20050;-85
2022/09/18 04:57:14;;;;;;;0.20;0.08;;;;;;;;;;4958722;28;20160;-86
2022/09/18 04:59:40;;;;;;;0.20;0.10;;;;;;;;;;4943980;28;20045;-84
2022/09/18 05:02:06;;;;;;;0.20;0.10;;;;;;;;;;4945693;28;20046;-85
2022/09/18 05:04:32;;;;;;;0.20;0.10;;;;;;;;;;4960196;28;20477;-86
2022/09/18 05:06:58;;;;;;;0.20;0.00;;;;;;;;;;4959592;28;21691;-84
2022/09/18 05:09:24;;;;;;;0.20;0.10;;;;;;;;;;4960947;28;21113;-86
2022/09/18 05:11:50;;;;;;;0.20;0.10;;;;;;;;;;4946827;28;20527;-86
2022/09/18 05:14:16;;;;;;;0.20;0.10;;;;;;;;;;4945919;28;20049;-84
2022/09/18 05:16:42;;;;;;;0.20;0.10;;;;;;;;;;4990332;28;20108;-85
2022/09/18 05:19:08;;;;;;;0.20;0.10;;;;;;;;;;4962160;28;20046;-89
2022/09/18 05:21:40;;;;;;;0.20;0.10;;;;;;;;;;4977104;28;20100;-85
2022/09/18 05:24:06;;;;;;;0.20;0.10;;;;;;;;;;4964596;28;20038;-85
2022/09/18 05:26:35;;;;;;;0.20;0.10;;;;;;;;;;4969683;28;20401;-87
2022/09/18 05:29:01;;;;;;;0.20;0.10;;;;;;;;;;4970177;28;20085;-85
2022/09/18 05:31:31;;;;;;;0.20;0.10;;;;;;;;;;4974428;28;20042;-89
2022/09/18 05:33:57;;;;;;;0.20;0.10;;;;;;;;;;4974479;28;20042;-83
2022/09/18 05:36:23;;;;;;;0.20;0.10;;;;;;;;;;4971039;28;20049;-86
2022/09/18 05:38:50;;;;;;;0.20;0.10;;;;;;;;;;4968961;28;20055;-84
2022/09/18 05:41:22;;;;;;;0.20;0.10;;;;;;;;;;4987207;28;20047;-89
2022/09/18 05:43:50;;;;;;;0.20;0.03;;;;;;;;;;4968466;28;20129;-87
2022/09/18 05:46:19;;;;;;;0.20;0.10;;;;;;;;;;4982102;28;20508;-86
2022/09/18 05:48:49;;;;;;;0.20;0.10;;;;;;;;;;5001160;28;20485;-88
2022/09/18 05:51:32;;;;;;;0.20;0.10;;;;;;;;;;4968380;28;20468;-87
2022/09/18 05:53:59;;;;;;;0.43;0.20;;;;;;;;;;5002994;28;20417;-86
2022/09/18 05:56:27;;;;;;;0.20;0.10;;;;;;;;;;4953399;28;20045;-87
2022/09/18 05:58:56;;;;;;;0.20;0.10;;;;;;;;;;4986609;28;20049;-87
2022/09/18 06:01:32;;;;;;;0.20;0.10;;;;;;;;;;4966638;28;20508;-88
2022/09/18 06:04:01;;;;;;;0.20;0.10;;;;;;;;;;4983638;28;20046;-89
2022/09/18 06:06:34;;;;;;;0.20;0.10;;;;;;;;;;4967193;28;20050;-85
2022/09/18 06:09:02;;;;;;;0.20;0.10;;;;;;;;;;4986922;28;20121;-90
2022/09/18 06:11:34;;;;;;;0.20;0.10;;;;;;;;;;4986472;28;20038;-93
2022/09/18 06:14:09;;;;;;;0.20;0.10;;;;;;;;;;4971998;28;20377;-90
2022/09/18 06:16:35;;;;;;;0.20;0.10;;;;;;;;;;4975988;28;20038;-87
2022/09/18 06:19:03;;;;;;;0.20;0.10;;;;;;;;;;4977748;28;20038;-89
2022/09/18 06:21:29;;;;;;;0.20;0.10;;;;;;;;;;4972359;28;20046;-90
2022/09/18 06:23:56;;;;;;;0.20;0.10;;;;;;;;;;4973661;28;20046;-89
2022/09/18 06:26:24;;;;;;;0.20;0.10;;;;;;;;;;4971969;28;20037;-88
2022/09/18 06:28:50;;;;;;;0.20;0.10;;;;;;;;;;4954606;28;20061;-89
2022/09/18 06:31:16;;;;;;;0.20;0.10;;;;;;;;;;4979397;28;20030;-87
2022/09/18 06:33:42;;;;;;;0.20;0.10;;;;;;;;;;4953148;28;20075;-86
2022/09/18 06:36:13;;;;;;;0.20;0.10;;;;;;;;;;4980372;28;20049;-88
2022/09/18 06:38:39;;;;;;;0.20;0.10;;;;;;;;;;4978871;28;20611;-89
2022/09/18 06:41:09;;;;;;;0.20;0.00;;;;;;;;;;4949919;28;20038;-87
2022/09/18 06:43:47;;;;;;;0.20;0.10;;;;;;;;;;4965431;28;20081;-88
2022/09/18 06:46:13;;;;;;;0.20;0.10;;;;;;;;;;4952391;28;20042;-88
2022/09/18 06:48:39;;;;;;;0.20;0.00;;;;;;;;;;4960167;28;20405;-89
2022/09/18 06:51:05;;;;;;;0.20;0.10;;;;;;;;;;4979865;28;20481;-87
2022/09/18 06:53:31;;;;;;;0.20;0.10;;;;;;;;;;4981631;28;21306;-87
2022/09/18 06:55:59;;;;;;;0.20;0.10;;;;;;;;;;4954114;28;20042;-86
2022/09/18 06:58:25;;;;;;;0.20;0.10;;;;;;;;;;4981284;28;20042;-88
2022/09/18 07:00:54;;;;;;;0.20;0.10;;;;;;;;;;4962179;28;20034;-90
2022/09/18 07:03:20;;;;;;;0.20;0.10;;;;;;;;;;4965048;28;20045;-87
2022/09/18 07:05:46;;;;;;;0.20;0.10;;;;;;;;;;4985541;28;20073;-87
2022/09/18 07:08:13;;;;;;;0.32;0.15;;;;;;;;;;4944675;28;20044;-86
2022/09/18 07:10:53;;;;;;;0.20;0.10;;;;;;;;;;4974585;28;20042;-90
2022/09/18 07:13:19;;;;;;;0.20;0.10;;;;;;;;;;4964822;28;20034;-89
2022/09/18 07:15:49;;;;;;;0.20;0.10;;;;;;;;;;4998687;28;20184;-88
2022/09/18 07:18:19;;;;;;;0.20;0.10;;;;;;;;;;4970693;28;20046;-88
2022/09/18 07:20:45;;;;;;;0.20;0.10;;;;;;;;;;4979344;28;20052;-85
2022/09/18 07:23:11;;;;;;;0.20;0.10;;;;;;;;;;4946628;28;20095;-90
2022/09/18 07:25:40;;;;;;;0.20;0.10;;;;;;;;;;4961041;28;20122;-89
2022/09/18 07:28:06;;;;;;;0.20;0.10;;;;;;;;;;4944590;28;20034;-85
2022/09/18 07:30:51;;;;;;;0.20;0.10;;;;;;;;;;4980859;28;20115;-88
2022/09/18 07:33:23;;;;;;;0.20;0.10;;;;;;;;;;4968897;28;20040;-91
2022/09/18 07:35:49;;;;;;;0.20;0.10;;;;;;;;;;4981553;28;21356;-87
2022/09/18 07:38:18;;;;;;;0.20;0.10;;;;;;;;;;4968799;28;20037;-87
2022/09/18 07:40:44;;;;;;;0.20;0.10;;;;;;;;;;4948716;28;20046;-88
2022/09/18 07:43:11;;;;;;;0.20;0.10;;;;;;;;;;5019967;23;20067;-81
2022/09/18 07:45:37;;;;;;;0.20;0.10;;;;;;;;;;4978478;28;20087;-83
2022/09/18 07:48:04;;;;;;;0.20;0.10;;;;;;;;;;4985625;28;20038;-82
2022/09/18 07:50:31;;;;;;;0.20;0.00;;;;;;;;;;5000860;28;20037;-81
2022/09/18 07:52:58;;;;;;;0.20;0.10;;;;;;;;;;4988439;28;20030;-82
2022/09/18 07:55:25;;;;;;;1.75;0.90;;;;;;;;;;4985585;28;20467;-83
2022/09/18 07:58:01;;;;;;;0.20;0.10;;;;;;;;;;4967387;28;20076;-83
2022/09/18 08:00:29;;;;;;;0.20;0.10;;;;;;;;;;4982088;28;20496;-83
2022/09/18 08:03:02;;;;;;;0.20;0.10;;;;;;;;;;4983582;28;20072;-83
2022/09/18 08:05:28;;;;;;;;;;;;;;;;;;4986997;28;20521;-82
2022/09/18 08:07:54;;;;;;;0.20;0.10;;;;;;;;;;4987058;28;19921;-81
2022/09/18 08:10:20;;;;;;;0.20;0.10;;;;;;;;;;4967137;28;20042;-79
2022/09/18 08:12:46;;;;;;;0.20;0.10;;;;;;;;;;4970443;28;20600;-82
2022/09/18 08:15:12;;;;;;;0.20;0.20;;;;;;;;;;4985609;28;20042;-82
2022/09/18 08:17:45;;;;;;;0.20;0.10;;;;;;;;;;4967536;28;20042;-81
2022/09/18 08:20:11;;;;;;;;;;;;;;;;;;4984799;28;20435;-82
2022/09/18 08:22:40;;;;;;;0.20;0.10;;;;;;;;;;4986019;28;19918;-81
2022/09/18 08:25:07;;;;;;;0.20;0.10;;;;;;;;;;4980964;28;20117;-82
2022/09/18 08:27:37;;;;;;;0.20;0.03;;;;;;;;;;4976744;28;22090;-80
2022/09/18 08:30:05;;;;;;;0.20;0.10;;;;;;;;;;4944100;28;20044;-79
2022/09/18 08:32:31;;;;;;;0.20;0.10;;;;;;;;;;4976516;28;20042;-82
2022/09/18 08:34:58;;;;;;;0.20;0.10;;;;;;;;;;4958572;28;20041;-80
2022/09/18 08:37:25;;;;;;;0.20;0.10;;;;;;;;;;4961837;28;20096;-79
2022/09/18 08:39:51;;;;;;;0.20;0.10;;;;;;;;;;4971110;28;20041;-79
2022/09/18 08:42:27;;;;;;;0.20;0.10;;;;;;;;;;4959398;28;20057;-80
2022/09/18 08:44:55;;;;;;;0.20;0.10;;;;;;;;;;4961573;28;20508;-80
2022/09/18 08:47:31;;;;;;;0.25;0.20;;;;;;;;;;4957564;28;20271;-82
2022/09/18 08:50:00;;;;;;;0.20;0.10;;;;;;;;;;4958403;28;20049;-82
2022/09/18 08:52:27;;;;;;;0.20;0.10;;;;;;;;;;4975363;28;20045;-79
2022/09/18 08:54:58;;;;;;;0.20;0.10;;;;;;;;;;4963814;28;20164;-80
2022/09/18 08:57:24;;;;;;;0.20;0.10;;;;;;;;;;4976372;28;20065;-82
2022/09/18 08:59:53;;;;;;;0.20;0.10;;;;;;;;;;4982000;28;20053;-82
2022/09/18 09:02:21;;;;;;;0.20;0.10;;;;;;;;;;4970376;28;20468;-80
2022/09/18 09:04:48;;;;;;;0.20;0.10;;;;;;;;;;4969771;28;20033;-83
2022/09/18 09:07:17;;;;;;;0.20;0.10;;;;;;;;;;4968804;28;20117;-84
2022/09/18 09:09:52;;;;;;;0.20;0.10;;;;;;;;;;4972490;28;20042;-81
2022/09/18 09:12:26;;;;;;;0.20;0.10;;;;;;;;;;4986954;28;20054;-82
2022/09/18 09:15:02;;;;;;;0.20;0.10;;;;;;;;;;4984039;28;20037;-83
2022/09/18 09:17:28;;;;;;;0.20;0.10;;;;;;;;;;4986615;28;20041;-82
2022/09/18 09:20:01;;;;;;;0.20;0.10;;;;;;;;;;4967955;28;20034;-84
2022/09/18 09:22:27;;;;;;;;;;;;;;;;;;4968983;28;20034;-82
2022/09/18 09:25:03;;;;;;;0.20;0.10;;;;;;;;;;4985686;28;19940;-82
2022/09/18 09:27:32;;;;;;;0.20;0.10;;;;;;;;;;4986619;28;20124;-81
2022/09/18 09:30:04;;;;;;;0.20;0.10;;;;;;;;;;4965607;28;20042;-82
2022/09/18 09:32:36;;;;;;;0.20;0.10;;;;;;;;;;4989430;28;20057;-83
2022/09/18 09:35:21;;;;;;;0.20;0.00;;;;;;;;;;4969208;28;20065;-81
2022/09/18 09:37:48;;;;;;;0.20;0.10;;;;;;;;;;4986432;28;20085;-82
2022/09/18 09:40:14;;;;;;;0.20;0.10;;;;;;;;;;4952398;28;20428;-82
2022/09/18 09:42:43;;;;;;;0.20;0.10;;;;;;;;;;4968697;28;20053;-82
2022/09/18 09:45:12;;;;;;;0.20;0.10;;;;;;;;;;4966412;28;20048;-82
2022/09/18 09:47:48;;;;;;;0.20;0.10;;;;;;;;;;4984153;28;20129;-83
2022/09/18 09:50:23;;;;;;;0.20;0.10;;;;;;;;;;4984279;28;20029;-81
2022/09/18 09:52:51;;;;;;;0.20;0.10;;;;;;;;;;4967509;28;20076;-81
2022/09/18 09:55:23;;;;;;;0.20;0.10;;;;;;;;;;4971938;28;20489;-83
2022/09/18 09:58:08;;;;;;;0.20;0.10;;;;;;;;;;4980430;28;20163;-82
2022/09/18 10:00:39;;;;;;;0.20;0.10;;;;;;;;;;4972060;28;20393;-82
2022/09/18 10:03:05;;;;;;;0.20;0.10;;;;;;;;;;4983328;28;21113;-80
2022/09/18 10:05:43;;;;;;;0.20;0.10;;;;;;;;;;4983716;28;20177;-81
2022/09/18 10:08:09;;;;;;;0.20;0.10;;;;;;;;;;4985620;28;20042;-80
2022/09/18 10:11:10;;;;;;;0.20;0.10;;;;;;;;;;4989673;28;20068;-81
2022/09/18 10:13:42;;;;;;;0.20;0.10;;;;;;;;;;4963622;28;20042;-81
2022/09/18 10:16:19;;;;;;;0.20;0.10;;;;;;;;;;4984746;28;20096;-82
2022/09/18 10:18:47;;;;;;;0.20;0.10;;;;;;;;;;4984710;28;20578;-82
2022/09/18 10:21:17;;;;;;;0.20;0.10;;;;;;;;;;4990369;28;20508;-81
2022/09/18 10:23:44;;;;;;;0.20;0.10;;;;;;;;;;4973424;28;20041;-83
2022/09/18 10:26:12;;;;;;;0.20;0.10;;;;;;;;;;4970787;28;20046;-81
2022/09/18 10:28:38;;;;;;;0.20;0.10;;;;;;;;;;4971345;28;20506;-81
2022/09/18 10:31:09;;;;;;;0.20;0.10;;;;;;;;;;4973183;28;20042;-82
2022/09/18 10:33:35;;;;;;;0.20;0.10;;;;;;;;;;4976243;28;21102;-81
2022/09/18 10:36:22;;;;;;;0.20;0.10;;;;;;;;;;4974119;28;20130;-84
2022/09/18 10:38:50;;;;;;;0.20;0.10;;;;;;;;;;5000811;28;20420;-83
2022/09/18 10:41:22;;;;;;;0.20;0.10;;;;;;;;;;4988748;28;20046;-83
2022/09/18 10:43:57;;;;;;;0.20;0.10;;;;;;;;;;4975483;28;20540;-82
2022/09/18 10:46:28;;;;;;;0.20;0.00;;;;;;;;;;4987538;28;20041;-82
2022/09/18 10:48:55;;;;;;;0.20;0.10;;;;;;;;;;4987421;28;20057;-82
2022/09/18 10:51:24;;;;;;;0.40;0.30;;;;;;;;;;4974326;28;20037;-81
2022/09/18 10:54:03;;;;;;;0.20;0.10;;;;;;;;;;4973199;28;20397;-81
2022/09/18 10:56:29;;;;;;;0.20;0.10;;;;;;;;;;4987540;28;20049;-83
2022/09/18 10:58:56;;;;;;;0.20;0.08;;;;;;;;;;4974095;28;20049;-83
2022/09/18 11:01:23;;;;;;;0.20;0.10;;;;;;;;;;4972298;28;20157;-82
2022/09/18 11:04:00;;;;;;;0.20;0.10;;;;;;;;;;4952229;28;20038;-83
2022/09/18 11:06:28;;;;;;;0.20;0.10;;;;;;;;;;4959805;28;20096;-82
2022/09/18 11:09:05;;;;;;;0.20;0.08;;;;;;;;;;4975725;28;21160;-79
2022/09/18 11:11:41;;;;;;;0.20;0.10;;;;;;;;;;4980478;28;20133;-80
2022/09/18 11:17:36;;;;;;;;;;;;;;;;;;;;;
2022/09/18 11:20:45;;;;;;;;;;;;;;;;;;;;;
2022/09/18 11:23:56;;;;;;;0.20;0.10;;;;;;;;;;4922763;28;20122;-83
2022/09/18 11:26:48;;;;;;;0.20;0.10;;;;;;;;;;4864869;29;20618;-81
2022/09/18 11:29:55;;;;;;;0.20;0.10;;;;;;;;;;4973161;28;20046;-80
2022/09/18 11:33:09;;;;;;;;;;;;;;;;;;;;;
2022/09/18 11:36:00;;;;;;;0.20;0.10;;;;;;;;;;4990924;28;20037;-81
2022/09/18 11:38:37;;;;;;;;;;;;;;;;;;;;;
2022/09/18 11:41:04;;;;;;;0.20;0.10;;;;;;;;;;4996830;28;20042;-80
2022/09/18 11:43:57;;;;;;;0.20;0.10;;;;;;;;;;4977443;28;20053;-82
2022/09/18 11:46:39;;;;;;;0.20;0.10;;;;;;;;;;4979387;28;20045;-82
2022/09/18 11:49:27;;;;;;;0.20;0.10;;;;;;;;;;5003880;28;20034;-82
2022/09/18 11:52:08;;;;;;;0.20;0.10;;;;;;;;;;4986380;28;20111;-83
2022/09/18 11:54:43;;;;;;;0.20;0.10;;;;;;;;;;5001022;28;20049;-83
2022/09/18 11:57:24;;;;;;;0.20;0.10;;;;;;;;;;4969065;28;20499;-84
2022/09/18 12:00:00;;;;;;;0.20;0.10;;;;;;;;;;4970810;28;20048;-81
2022/09/18 12:02:32;;;;;;;0.20;0.10;;;;;;;;;;4984333;28;20092;-81
2022/09/18 12:05:30;;;;;;;0.20;0.10;;;;;;;;;;4982795;28;20128;-83
2022/09/18 12:07:59;;;;;;;0.20;0.10;;;;;;;;;;4981719;28;20301;-81
2022/09/18 12:10:44;;;;;;;0.20;0.10;;;;;;;;;;4997506;28;20041;-82
2022/09/18 12:13:32;;;;;;;0.20;0.10;;;;;;;;;;4985198;28;20046;-84
2022/09/18 12:16:03;;;;;;;0.20;0.10;;;;;;;;;;4968672;28;20041;-80
2022/09/18 12:18:41;;;;;;;0.20;0.10;;;;;;;;;;4983578;28;20056;-82
2022/09/18 12:21:13;;;;;;;0.20;0.00;;;;;;;;;;4985209;28;20038;-82
2022/09/18 12:23:39;;;;;;;0.20;0.00;;;;;;;;;;4968635;28;20029;-81
2022/09/18 12:26:11;;;;;;;0.20;0.10;;;;;;;;;;4978455;28;20104;-81
2022/09/18 12:28:55;;;;;;;0.20;0.10;;;;;;;;;;4980954;28;20100;-82
2022/09/18 12:31:25;;;;;;;0.20;0.10;;;;;;;;;;4982511;28;20049;-83
2022/09/18 12:34:09;;;;;;;0.20;0.10;;;;;;;;;;4982713;28;20053;-83
2022/09/18 12:36:43;;;;;;;0.20;0.20;;;;;;;;;;4963068;28;20041;-82
2022/09/18 12:39:34;;;;;;;;;;;;;;;;;;;;;
2022/09/18 12:42:21;;;;;;;0.20;0.10;;;;;;;;;;4977510;28;20125;-84
2022/09/18 12:45:05;;;;;;;0.20;0.05;;;;;;;;;;4976022;28;20057;-82
2022/09/18 12:47:35;;;;;;;0.20;0.10;;;;;;;;;;4974180;28;20042;-83
2022/09/18 12:50:04;;;;;;;0.20;0.10;;;;;;;;;;4981342;28;20041;-82
2022/09/18 12:52:46;;;;;;;0.20;0.10;;;;;;;;;;4975825;28;20040;-81
2022/09/18 12:55:13;;;;;;;;;;;;;;;;;;4956349;28;20050;-81
2022/09/18 12:57:53;;;;;;;0.20;0.10;;;;;;;;;;4971250;28;19933;-81
2022/09/18 13:00:22;;;;;;;0.20;0.10;;;;;;;;;;4966321;28;20046;-82
2022/09/18 13:02:55;;;;;;;0.20;0.10;;;;;;;;;;4970281;28;20049;-82
2022/09/18 13:05:24;;;;;;;0.20;0.10;;;;;;;;;;4971762;28;20030;-82
2022/09/18 13:08:00;;;;;;;0.20;0.10;;;;;;;;;;4973863;28;20045;-81
2022/09/18 13:10:31;;;;;;;0.20;0.10;;;;;;;;;;4987978;28;20069;-81
2022/09/18 13:13:18;;;;;;;0.20;0.10;;;;;;;;;;4959782;28;20081;-81
2022/09/18 13:16:14;;;;;;;0.20;0.10;;;;;;;;;;4960309;28;20106;-82
2022/09/18 13:18:43;;;;;;;0.20;0.10;;;;;;;;;;4970291;28;20465;-80
2022/09/18 13:21:23;;;;;;;0.20;0.00;;;;;;;;;;4977553;28;20735;-81
2022/09/18 13:23:50;;;;;;;0.20;0.10;;;;;;;;;;4973096;28;20125;-81
2022/09/18 13:26:21;;;;;;;0.20;0.10;;;;;;;;;;4955530;28;20054;-81
2022/09/18 13:28:55;;;;;;;0.20;0.10;;;;;;;;;;4957252;28;20038;-81
2022/09/18 13:31:26;;;;;;;0.20;0.10;;;;;;;;;;4958261;28;20034;-80
2022/09/18 13:34:22;;;;;;;0.20;0.10;;;;;;;;;;4971078;28;20058;-82
2022/09/18 13:36:51;;;;;;;0.20;0.10;;;;;;;;;;4955396;28;20120;-82
2022/09/18 13:39:59;;;;;;;0.20;0.10;;;;;;;;;;4961392;28;20072;-82
2022/09/18 13:42:30;;;;;;;0.20;0.10;;;;;;;;;;4977553;22;20050;-84
2022/09/18 13:45:01;;;;;;;0.20;0.10;;;;;;;;;;4974981;28;20054;-90
2022/09/18 13:47:46;;;;;;;0.20;0.10;;;;;;;;;;4974172;28;20076;-89
2022/09/18 13:50:54;;;;;;;0.20;0.10;;;;;;;;;;4997416;28;20040;-91
2022/09/18 13:53:33;;;;;;;0.20;0.10;;;;;;;;;;4957154;28;20038;-85
2022/09/18 13:56:18;;;;;;;0.20;0.10;;;;;;;;;;4977425;28;20042;-88
2022/09/18 13:59:01;;;;;;;0.20;0.10;;;;;;;;;;4978016;28;20039;-86
2022/09/18 14:01:45;;;;;;;0.20;0.10;;;;;;;;;;4952072;28;20042;-86
2022/09/18 14:04:30;;;;;;;0.20;0.10;;;;;;;;;;4960488;28;20130;-84
2022/09/18 14:07:21;;;;;;;0.20;0.10;;;;;;;;;;4948012;28;22116;-84
2022/09/18 14:13:28;;;;;;;0.20;0.10;;;;;;;;;;4956914;28;20647;-90
2022/09/18 14:15:58;;;;;;;0.20;0.10;;;;;;;;;;4960502;28;20640;-89
2022/09/18 14:18:29;;;;;;;0.20;0.10;;;;;;;;;;4950593;28;20038;-88
2022/09/18 14:20:58;;;;;;;0.20;0.10;;;;;;;;;;4984647;28;20049;-88
2022/09/18 14:23:47;;;;;;;0.20;0.10;;;;;;;;;;4973867;28;20038;-89
2022/09/18 14:26:33;;;;;;;0.20;0.10;;;;;;;;;;4969920;28;20039;-89
2022/09/18 14:29:09;;;;;;;0.20;0.10;;;;;;;;;;4973928;28;20121;-90
2022/09/18 14:31:38;;;;;;;0.20;0.10;;;;;;;;;;4955629;28;20034;-89
2022/09/18 14:34:16;;;;;;;0.20;0.10;;;;;;;;;;4971098;28;20046;-89
2022/09/18 14:36:54;;;;;;;0.20;0.10;;;;;;;;;;4958818;28;20124;-87
2022/09/18 14:39:36;;;;;;;0.20;0.10;;;;;;;;;;4995599;28;20053;-89
2022/09/18 14:42:11;;;;;;;0.20;0.10;;;;;;;;;;4985623;28;20120;-90
2022/09/18 14:44:46;;;;;;;0.20;0.10;;;;;;;;;;4958114;28;20038;-88
2022/09/18 14:47:19;;;;;;;0.20;0.10;;;;;;;;;;4970918;28;20069;-87
2022/09/18 14:49:47;;;;;;;;;;;;;;;;;;4990788;28;20038;-88
2022/09/18 14:52:27;;;;;;;0.20;0.10;;;;;;;;;;4976525;28;19925;-88
2022/09/18 14:54:58;;;;;;;0.20;0.10;;;;;;;;;;4957143;28;20620;-90
2022/09/18 14:57:26;;;;;;;0.20;0.10;;;;;;;;;;4975328;28;20255;-88
2022/09/18 14:59:57;;;;;;;0.20;0.10;;;;;;;;;;4988296;28;20046;-90
2022/09/18 15:02:34;;;;;;;0.20;0.10;;;;;;;;;;4972670;28;20084;-88
2022/09/18 15:05:02;;;;;;;0.20;0.10;;;;;;;;;;4956738;28;20056;-89
2022/09/18 15:07:29;;;;;;;0.20;0.08;;;;;;;;;;4956475;28;20095;-89
2022/09/18 15:09:58;;;;;;;0.20;0.10;;;;;;;;;;4971731;28;20042;-88
2022/09/18 15:12:25;;;;;;;0.20;0.10;;;;;;;;;;4974190;28;20030;-89
2022/09/18 15:14:54;;;;;;;0.20;0.10;;;;;;;;;;4989095;28;20099;-84
2022/09/18 15:17:20;;;;;;;0.20;0.10;;;;;;;;;;4953953;28;20088;-87
2022/09/18 15:20:00;;;;;;;0.20;0.10;;;;;;;;;;4969490;28;20469;-89
2022/09/18 15:22:26;;;;;;;0.20;0.10;;;;;;;;;;4954502;28;20039;-87